sensor_id;sensor_type;location;lat;lon;timestamp;P1;durP1;ratioP1;P2;durP2;ratioP2
9392;SDS011;4736;52.508;13.422;2022-11-20T06:28:10;26.03;;;19.73;;
9392;SDS011;4736;52.508;13.422;2022-11-20T06:31:14;21.60;;;18.33;;
9392;SDS011;4736;52.508;13.422;2022-11-20T06:34:18;21.83;;;18.20;;
9392;SDS011;4736;52.508;13.422;2022-11-20T06:37:21;20.63;;;18.23;;
9392;SDS011;4736;52.508;13.422;2022-11-20T06:40:24;21.60;;;17.47;;
9392;SDS011;4736;52.508;13.422;2022-11-20T06:43:28;21.60;;;16.60;;
9392;SDS011;4736;52.508;13.422;2022-11-20T06:46:31;19.87;;;16.77;;
9392;SDS011;4736;52.508;13.422;2022-11-20T06:49:34;21.83;;;17.10;;
9392;SDS011;4736;52.508;13.422;2022-11-20T06:52:39;20.47;;;17.10;;
9392;SDS011;4736;52.508;13.422;2022-11-20T06:55:44;19.53;;;17.43;;
9392;SDS011;4736;52.508;13.422;2022-11-20T06:58:49;23.80;;;18.33;;
9392;SDS011;4736;52.508;13.422;2022-11-20T07:01:52;18.73;;;16.77;;
9392;SDS011;4736;52.508;13.422;2022-11-20T07:04:55;20.93;;;16.90;;
9392;SDS011;4736;52.508;13.422;2022-11-20T07:07:58;19.53;;;17.47;;
9392;SDS011;4736;52.508;13.422;2022-11-20T07:11:02;20.20;;;16.60;;
9392;SDS011;4736;52.508;13.422;2022-11-20T07:14:08;19.17;;;16.17;;
9392;SDS011;4736;52.508;13.422;2022-11-20T07:17:11;22.73;;;17.87;;
9392;SDS011;4736;52.508;13.422;2022-11-20T07:20:14;24.17;;;18.10;;
9392;SDS011;4736;52.508;13.422;2022-11-20T07:23:18;22.87;;;18.10;;
9392;SDS011;4736;52.508;13.422;2022-11-20T07:26:21;21.93;;;18.20;;
9392;SDS011;4736;52.508;13.422;2022-11-20T07:29:25;20.90;;;17.13;;
9392;SDS011;4736;52.508;13.422;2022-11-20T07:32:28;21.23;;;17.70;;
9392;SDS011;4736;52.508;13.422;2022-11-20T07:35:31;25.57;;;17.77;;
9392;SDS011;4736;52.508;13.422;2022-11-20T07:38:34;20.87;;;18.40;;
9392;SDS011;4736;52.508;13.422;2022-11-20T07:41:37;22.53;;;18.00;;
9392;SDS011;4736;52.508;13.422;2022-11-20T07:44:41;20.10;;;17.93;;
9392;SDS011;4736;52.508;13.422;2022-11-20T07:47:44;22.33;;;17.13;;
9392;SDS011;4736;52.508;13.422;2022-11-20T07:50:47;23.27;;;17.33;;
9392;SDS011;4736;52.508;13.422;2022-11-20T07:53:50;20.47;;;18.00;;
9392;SDS011;4736;52.508;13.422;2022-11-20T07:56:53;23.30;;;17.20;;
9392;SDS011;4736;52.508;13.422;2022-11-20T07:59:57;21.93;;;18.00;;
9392;SDS011;4736;52.508;13.422;2022-11-20T08:03:02;20.07;;;17.33;;
9392;SDS011;4736;52.508;13.422;2022-11-20T08:06:06;20.90;;;18.33;;
9392;SDS011;4736;52.508;13.422;2022-11-20T08:09:09;21.27;;;17.33;;
9392;SDS011;4736;52.508;13.422;2022-11-20T08:12:16;22.10;;;18.30;;
9392;SDS011;4736;52.508;13.422;2022-11-20T08:15:39;23.37;;;18.30;;
9392;SDS011;4736;52.508;13.422;2022-11-20T08:18:42;21.87;;;17.87;;
9392;SDS011;4736;52.508;13.422;2022-11-20T08:21:45;22.10;;;17.77;;
9392;SDS011;4736;52.508;13.422;2022-11-20T08:24:48;22.43;;;17.97;;
9392;SDS011;4736;52.508;13.422;2022-11-20T08:27:51;22.40;;;17.63;;
9392;SDS011;4736;52.508;13.422;2022-11-20T08:31:02;22.83;;;17.43;;
9392;SDS011;4736;52.508;13.422;2022-11-20T08:34:05;23.60;;;18.77;;
9392;SDS011;4736;52.508;13.422;2022-11-20T08:37:10;25.23;;;19.63;;
9392;SDS011;4736;52.508;13.422;2022-11-20T08:40:13;22.23;;;17.23;;
9392;SDS011;4736;52.508;13.422;2022-11-20T08:43:20;20.70;;;17.70;;
9392;SDS011;4736;52.508;13.422;2022-11-20T08:46:25;23.80;;;17.30;;
9392;SDS011;4736;52.508;13.422;2022-11-20T08:49:29;21.10;;;17.97;;
9392;SDS011;4736;52.508;13.422;2022-11-20T08:52:32;22.43;;;19.33;;
9392;SDS011;4736;52.508;13.422;2022-11-20T08:55:40;23.67;;;17.93;;
9392;SDS011;4736;52.508;13.422;2022-11-20T08:58:43;22.63;;;17.27;;
9392;SDS011;4736;52.508;13.422;2022-11-20T09:02:07;21.87;;;17.90;;
9392;SDS011;4736;52.508;13.422;2022-11-20T09:05:10;23.90;;;18.57;;
9392;SDS011;4736;52.508;13.422;2022-11-20T09:08:13;24.97;;;18.93;;
9392;SDS011;4736;52.508;13.422;2022-11-20T09:11:16;22.77;;;17.67;;
9392;SDS011;4736;52.508;13.422;2022-11-20T09:14:19;21.83;;;18.27;;
9392;SDS011;4736;52.508;13.422;2022-11-20T09:17:23;21.40;;;17.87;;
9392;SDS011;4736;52.508;13.422;2022-11-20T09:20:27;19.63;;;17.30;;
9392;SDS011;4736;52.508;13.422;2022-11-20T09:23:32;21.40;;;17.10;;
9392;SDS011;4736;52.508;13.422;2022-11-20T09:26:36;36.90;;;18.73;;
9392;SDS011;4736;52.508;13.422;2022-11-20T09:29:39;23.03;;;18.13;;
9392;SDS011;4736;52.508;13.422;2022-11-20T09:32:43;19.70;;;16.03;;
9392;SDS011;4736;52.508;13.422;2022-11-20T09:35:46;19.87;;;15.33;;
9392;SDS011;4736;52.508;13.422;2022-11-20T09:38:49;21.23;;;17.13;;
9392;SDS011;4736;52.508;13.422;2022-11-20T09:41:58;20.33;;;16.80;;
9392;SDS011;4736;52.508;13.422;2022-11-20T09:45:43;20.83;;;17.80;;
9392;SDS011;4736;52.508;13.422;2022-11-20T09:48:58;21.10;;;17.07;;
9392;SDS011;4736;52.508;13.422;2022-11-20T09:52:21;22.63;;;17.77;;
9392;SDS011;4736;52.508;13.422;2022-11-20T09:55:30;18.80;;;16.23;;
9392;SDS011;4736;52.508;13.422;2022-11-20T09:58:35;18.67;;;16.63;;
9392;SDS011;4736;52.508;13.422;2022-11-20T10:01:43;18.37;;;16.20;;
9392;SDS011;4736;52.508;13.422;2022-11-20T10:04:49;18.47;;;16.63;;
9392;SDS011;4736;52.508;13.422;2022-11-20T10:07:59;22.07;;;17.47;;
9392;SDS011;4736;52.508;13.422;2022-11-20T10:11:15;18.47;;;16.53;;
9392;SDS011;4736;52.508;13.422;2022-11-20T10:14:26;22.13;;;17.93;;
9392;SDS011;4736;52.508;13.422;2022-11-20T10:17:51;19.23;;;16.87;;
9392;SDS011;4736;52.508;13.422;2022-11-20T10:21:07;20.53;;;17.73;;
9392;SDS011;4736;52.508;13.422;2022-11-20T10:24:23;21.03;;;17.60;;
9392;SDS011;4736;52.508;13.422;2022-11-20T10:27:48;18.00;;;16.07;;
9392;SDS011;4736;52.508;13.422;2022-11-20T10:31:02;21.63;;;17.93;;
9392;SDS011;4736;52.508;13.422;2022-11-20T10:34:07;19.17;;;16.70;;
9392;SDS011;4736;52.508;13.422;2022-11-20T10:37:25;22.20;;;18.10;;
9392;SDS011;4736;52.508;13.422;2022-11-20T10:40:31;22.13;;;17.63;;
9392;SDS011;4736;52.508;13.422;2022-11-20T10:43:38;25.57;;;17.70;;
9392;SDS011;4736;52.508;13.422;2022-11-20T10:46:43;20.67;;;17.90;;
9392;SDS011;4736;52.508;13.422;2022-11-20T10:49:48;20.87;;;18.10;;
9392;SDS011;4736;52.508;13.422;2022-11-20T10:52:58;19.43;;;17.10;;
9392;SDS011;4736;52.508;13.422;2022-11-20T10:56:10;20.60;;;16.80;;
9392;SDS011;4736;52.508;13.422;2022-11-20T10:59:27;19.77;;;17.63;;
9392;SDS011;4736;52.508;13.422;2022-11-20T11:02:39;20.37;;;17.37;;
9392;SDS011;4736;52.508;13.422;2022-11-20T11:05:46;21.37;;;17.67;;
9392;SDS011;4736;52.508;13.422;2022-11-20T11:08:56;19.47;;;16.87;;
9392;SDS011;4736;52.508;13.422;2022-11-20T11:12:06;18.97;;;16.90;;
9392;SDS011;4736;52.508;13.422;2022-11-20T11:15:11;20.07;;;16.67;;
9392;SDS011;4736;52.508;13.422;2022-11-20T11:18:23;18.70;;;16.13;;
9392;SDS011;4736;52.508;13.422;2022-11-20T11:21:28;18.83;;;16.83;;
9392;SDS011;4736;52.508;13.422;2022-11-20T11:24:32;20.33;;;17.10;;
9392;SDS011;4736;52.508;13.422;2022-11-20T11:27:45;19.07;;;17.10;;
9392;SDS011;4736;52.508;13.422;2022-11-20T11:30:48;22.23;;;17.77;;
9392;SDS011;4736;52.508;13.422;2022-11-20T11:33:51;18.27;;;16.37;;
9392;SDS011;4736;52.508;13.422;2022-11-20T11:36:56;18.67;;;16.77;;
9392;SDS011;4736;52.508;13.422;2022-11-20T11:40:02;19.27;;;16.90;;
9392;SDS011;4736;52.508;13.422;2022-11-20T11:43:28;18.20;;;16.27;;
9392;SDS011;4736;52.508;13.422;2022-11-20T11:46:52;17.53;;;15.43;;
9392;SDS011;4736;52.508;13.422;2022-11-20T11:50:00;17.67;;;15.77;;
9392;SDS011;4736;52.508;13.422;2022-11-20T11:53:07;18.37;;;16.50;;
9392;SDS011;4736;52.508;13.422;2022-11-20T11:56:15;18.03;;;15.27;;
9392;SDS011;4736;52.508;13.422;2022-11-20T11:59:22;18.47;;;16.53;;
9392;SDS011;4736;52.508;13.422;2022-11-20T12:02:31;19.23;;;16.40;;
9392;SDS011;4736;52.508;13.422;2022-11-20T12:05:40;18.53;;;16.13;;
9392;SDS011;4736;52.508;13.422;2022-11-20T12:08:48;19.83;;;16.80;;
9392;SDS011;4736;52.508;13.422;2022-11-20T12:11:58;21.80;;;15.20;;
9392;SDS011;4736;52.508;13.422;2022-11-20T12:15:07;18.23;;;15.97;;
9392;SDS011;4736;52.508;13.422;2022-11-20T12:18:14;16.83;;;15.10;;
9392;SDS011;4736;52.508;13.422;2022-11-20T12:21:20;19.87;;;16.40;;
9392;SDS011;4736;52.508;13.422;2022-11-20T12:24:42;16.30;;;14.70;;
9392;SDS011;4736;52.508;13.422;2022-11-20T12:27:59;15.93;;;13.87;;
9392;SDS011;4736;52.508;13.422;2022-11-20T12:31:22;19.10;;;16.57;;
9392;SDS011;4736;52.508;13.422;2022-11-20T12:34:47;19.03;;;16.57;;
9392;SDS011;4736;52.508;13.422;2022-11-20T12:38:03;18.10;;;16.20;;
9392;SDS011;4736;52.508;13.422;2022-11-20T12:41:19;17.90;;;15.97;;
9392;SDS011;4736;52.508;13.422;2022-11-20T12:44:52;18.07;;;16.00;;
9392;SDS011;4736;52.508;13.422;2022-11-20T12:48:33;17.30;;;15.50;;
9392;SDS011;4736;52.508;13.422;2022-11-20T12:51:57;15.97;;;14.27;;
9392;SDS011;4736;52.508;13.422;2022-11-20T12:55:23;14.77;;;13.10;;
9392;SDS011;4736;52.508;13.422;2022-11-20T12:58:33;14.63;;;12.67;;
9392;SDS011;4736;52.508;13.422;2022-11-20T13:01:49;16.00;;;11.67;;
9392;SDS011;4736;52.508;13.422;2022-11-20T13:08:21;12.30;;;11.27;;
9392;SDS011;4736;52.508;13.422;2022-11-20T13:11:27;12.47;;;11.17;;
9392;SDS011;4736;52.508;13.422;2022-11-20T13:14:40;11.40;;;10.40;;
9392;SDS011;4736;52.508;13.422;2022-11-20T13:17:50;12.27;;;11.07;;
9392;SDS011;4736;52.508;13.422;2022-11-20T13:20:56;12.33;;;11.13;;
9392;SDS011;4736;52.508;13.422;2022-11-20T13:24:03;13.47;;;12.33;;
9392;SDS011;4736;52.508;13.422;2022-11-20T13:30:25;12.50;;;11.17;;
9392;SDS011;4736;52.508;13.422;2022-11-20T13:33:31;12.07;;;11.03;;
9392;SDS011;4736;52.508;13.422;2022-11-20T13:36:35;12.30;;;11.13;;
9392;SDS011;4736;52.508;13.422;2022-11-20T13:39:38;12.53;;;11.37;;
9392;SDS011;4736;52.508;13.422;2022-11-20T13:42:43;12.17;;;11.13;;
9392;SDS011;4736;52.508;13.422;2022-11-20T13:45:54;12.50;;;11.30;;
9392;SDS011;4736;52.508;13.422;2022-11-20T13:49:00;12.10;;;11.00;;
9392;SDS011;4736;52.508;13.422;2022-11-20T13:52:21;13.10;;;11.27;;
9392;SDS011;4736;52.508;13.422;2022-11-20T13:55:41;12.43;;;11.33;;
9392;SDS011;4736;52.508;13.422;2022-11-20T13:58:49;11.47;;;10.43;;
9392;SDS011;4736;52.508;13.422;2022-11-20T14:02:08;11.00;;;10.10;;
9392;SDS011;4736;52.508;13.422;2022-11-20T14:05:17;12.63;;;11.53;;
9392;SDS011;4736;52.508;13.422;2022-11-20T14:08:24;11.50;;;10.40;;
9392;SDS011;4736;52.508;13.422;2022-11-20T14:11:30;11.67;;;10.47;;
9392;SDS011;4736;52.508;13.422;2022-11-20T14:14:34;11.73;;;10.03;;
9392;SDS011;4736;52.508;13.422;2022-11-20T14:17:38;12.10;;;10.87;;
9392;SDS011;4736;52.508;13.422;2022-11-20T14:20:42;12.83;;;10.80;;
9392;SDS011;4736;52.508;13.422;2022-11-20T14:23:45;11.93;;;10.77;;
9392;SDS011;4736;52.508;13.422;2022-11-20T14:26:49;10.67;;;9.67;;
9392;SDS011;4736;52.508;13.422;2022-11-20T14:29:52;11.97;;;10.90;;
9392;SDS011;4736;52.508;13.422;2022-11-20T14:32:56;12.33;;;11.33;;
9392;SDS011;4736;52.508;13.422;2022-11-20T14:36:05;12.00;;;10.80;;
9392;SDS011;4736;52.508;13.422;2022-11-20T14:39:19;11.60;;;10.47;;
9392;SDS011;4736;52.508;13.422;2022-11-20T14:42:24;11.60;;;10.53;;
9392;SDS011;4736;52.508;13.422;2022-11-20T14:45:28;15.00;;;12.87;;
9392;SDS011;4736;52.508;13.422;2022-11-20T14:48:31;12.60;;;11.30;;
9392;SDS011;4736;52.508;13.422;2022-11-20T14:51:39;12.90;;;11.80;;
9392;SDS011;4736;52.508;13.422;2022-11-20T14:54:43;13.97;;;12.47;;
9392;SDS011;4736;52.508;13.422;2022-11-20T14:57:53;13.40;;;12.03;;
9392;SDS011;4736;52.508;13.422;2022-11-20T15:00:58;13.70;;;12.50;;
9392;SDS011;4736;52.508;13.422;2022-11-20T15:04:05;14.10;;;12.77;;
9392;SDS011;4736;52.508;13.422;2022-11-20T15:07:11;12.80;;;11.60;;
9392;SDS011;4736;52.508;13.422;2022-11-20T15:10:27;13.67;;;12.40;;
9392;SDS011;4736;52.508;13.422;2022-11-20T15:13:31;13.27;;;12.07;;
9392;SDS011;4736;52.508;13.422;2022-11-20T15:16:35;13.00;;;11.70;;
9392;SDS011;4736;52.508;13.422;2022-11-20T15:19:38;13.27;;;12.00;;
9392;SDS011;4736;52.508;13.422;2022-11-20T15:22:42;12.73;;;11.63;;
9392;SDS011;4736;52.508;13.422;2022-11-20T15:25:45;13.03;;;11.73;;
9392;SDS011;4736;52.508;13.422;2022-11-20T15:28:50;14.30;;;11.77;;
9392;SDS011;4736;52.508;13.422;2022-11-20T15:31:53;12.97;;;11.63;;
9392;SDS011;4736;52.508;13.422;2022-11-20T15:34:57;13.60;;;12.10;;
9392;SDS011;4736;52.508;13.422;2022-11-20T15:38:01;12.83;;;11.80;;
9392;SDS011;4736;52.508;13.422;2022-11-20T15:41:04;13.23;;;11.97;;
9392;SDS011;4736;52.508;13.422;2022-11-20T15:44:07;13.60;;;12.30;;
9392;SDS011;4736;52.508;13.422;2022-11-20T15:47:10;13.37;;;12.00;;
9392;SDS011;4736;52.508;13.422;2022-11-20T15:50:13;14.07;;;12.10;;
9392;SDS011;4736;52.508;13.422;2022-11-20T15:53:21;13.97;;;12.60;;
9392;SDS011;4736;52.508;13.422;2022-11-20T15:56:24;14.40;;;13.03;;
9392;SDS011;4736;52.508;13.422;2022-11-20T15:59:27;14.10;;;12.70;;
9392;SDS011;4736;52.508;13.422;2022-11-20T16:02:30;14.93;;;13.40;;
9392;SDS011;4736;52.508;13.422;2022-11-20T16:05:33;15.17;;;13.60;;
9392;SDS011;4736;52.508;13.422;2022-11-20T16:08:37;15.20;;;12.90;;
9392;SDS011;4736;52.508;13.422;2022-11-20T16:11:40;15.07;;;12.93;;
9392;SDS011;4736;52.508;13.422;2022-11-20T16:14:43;15.93;;;13.87;;
9392;SDS011;4736;52.508;13.422;2022-11-20T16:18:04;14.17;;;12.67;;
9392;SDS011;4736;52.508;13.422;2022-11-20T16:21:10;15.50;;;12.43;;
9392;SDS011;4736;52.508;13.422;2022-11-20T16:24:15;14.43;;;12.80;;
9392;SDS011;4736;52.508;13.422;2022-11-20T16:27:18;15.03;;;13.37;;
9392;SDS011;4736;52.508;13.422;2022-11-20T16:30:21;14.07;;;12.23;;
9392;SDS011;4736;52.508;13.422;2022-11-20T16:33:24;14.20;;;12.90;;
9392;SDS011;4736;52.508;13.422;2022-11-20T16:36:27;14.83;;;13.00;;
9392;SDS011;4736;52.508;13.422;2022-11-20T16:39:32;14.07;;;12.53;;
9392;SDS011;4736;52.508;13.422;2022-11-20T16:42:35;14.43;;;13.13;;
9392;SDS011;4736;52.508;13.422;2022-11-20T16:45:42;14.43;;;13.07;;
9392;SDS011;4736;52.508;13.422;2022-11-20T16:48:50;17.73;;;12.80;;
9392;SDS011;4736;52.508;13.422;2022-11-20T16:51:55;15.90;;;13.67;;
9392;SDS011;4736;52.508;13.422;2022-11-20T16:54:59;14.63;;;13.13;;
9392;SDS011;4736;52.508;13.422;2022-11-20T16:58:02;14.20;;;12.80;;
9392;SDS011;4736;52.508;13.422;2022-11-20T17:01:05;16.20;;;14.30;;
9392;SDS011;4736;52.508;13.422;2022-11-20T17:04:10;15.37;;;13.50;;
9392;SDS011;4736;52.508;13.422;2022-11-20T17:07:13;14.83;;;12.77;;
9392;SDS011;4736;52.508;13.422;2022-11-20T17:10:18;14.87;;;12.50;;
9392;SDS011;4736;52.508;13.422;2022-11-20T17:13:21;18.23;;;13.80;;
9392;SDS011;4736;52.508;13.422;2022-11-20T17:16:24;15.33;;;13.73;;
9392;SDS011;4736;52.508;13.422;2022-11-20T17:19:27;15.43;;;13.93;;
9392;SDS011;4736;52.508;13.422;2022-11-20T17:22:30;15.07;;;13.57;;
9392;SDS011;4736;52.508;13.422;2022-11-20T17:25:35;14.90;;;13.50;;
9392;SDS011;4736;52.508;13.422;2022-11-20T17:28:38;15.83;;;14.33;;
9392;SDS011;4736;52.508;13.422;2022-11-20T17:31:42;14.77;;;13.27;;
9392;SDS011;4736;52.508;13.422;2022-11-20T17:34:45;15.63;;;13.97;;
9392;SDS011;4736;52.508;13.422;2022-11-20T17:37:48;15.17;;;13.57;;
9392;SDS011;4736;52.508;13.422;2022-11-20T17:40:52;18.00;;;13.57;;
9392;SDS011;4736;52.508;13.422;2022-11-20T17:44:02;16.63;;;14.97;;
9392;SDS011;4736;52.508;13.422;2022-11-20T17:47:05;14.90;;;13.47;;
9392;SDS011;4736;52.508;13.422;2022-11-20T17:50:08;17.60;;;13.87;;
9392;SDS011;4736;52.508;13.422;2022-11-20T17:53:11;17.30;;;14.23;;
9392;SDS011;4736;52.508;13.422;2022-11-20T17:56:16;16.27;;;14.57;;
9392;SDS011;4736;52.508;13.422;2022-11-20T17:59:36;16.67;;;13.90;;
9392;SDS011;4736;52.508;13.422;2022-11-20T18:02:39;17.73;;;15.57;;
9392;SDS011;4736;52.508;13.422;2022-11-20T18:05:42;19.40;;;16.70;;
9392;SDS011;4736;52.508;13.422;2022-11-20T18:08:45;17.50;;;15.33;;
9392;SDS011;4736;52.508;13.422;2022-11-20T18:11:51;16.93;;;14.67;;
9392;SDS011;4736;52.508;13.422;2022-11-20T18:14:54;15.93;;;14.10;;
9392;SDS011;4736;52.508;13.422;2022-11-20T18:17:57;18.53;;;14.70;;
9392;SDS011;4736;52.508;13.422;2022-11-20T18:21:00;16.57;;;14.87;;
9392;SDS011;4736;52.508;13.422;2022-11-20T18:24:03;16.30;;;14.60;;
9392;SDS011;4736;52.508;13.422;2022-11-20T18:27:12;14.90;;;13.40;;
9392;SDS011;4736;52.508;13.422;2022-11-20T18:30:17;15.20;;;13.70;;
9392;SDS011;4736;52.508;13.422;2022-11-20T18:33:20;16.10;;;14.47;;
9392;SDS011;4736;52.508;13.422;2022-11-20T18:36:29;16.07;;;14.23;;
9392;SDS011;4736;52.508;13.422;2022-11-20T18:39:32;18.23;;;16.27;;
9392;SDS011;4736;52.508;13.422;2022-11-20T18:42:37;15.80;;;14.10;;
9392;SDS011;4736;52.508;13.422;2022-11-20T18:46:00;16.67;;;14.97;;
9392;SDS011;4736;52.508;13.422;2022-11-20T18:49:04;16.63;;;14.70;;
9392;SDS011;4736;52.508;13.422;2022-11-20T18:52:07;16.80;;;15.07;;
9392;SDS011;4736;52.508;13.422;2022-11-20T18:55:10;21.10;;;15.57;;
9392;SDS011;4736;52.508;13.422;2022-11-20T18:58:14;16.90;;;15.17;;
9392;SDS011;4736;52.508;13.422;2022-11-20T19:01:17;16.87;;;14.93;;
9392;SDS011;4736;52.508;13.422;2022-11-20T19:04:20;16.37;;;14.67;;
9392;SDS011;4736;52.508;13.422;2022-11-20T19:07:23;16.07;;;14.37;;
9392;SDS011;4736;52.508;13.422;2022-11-20T19:10:28;16.33;;;14.67;;
9392;SDS011;4736;52.508;13.422;2022-11-20T19:13:32;17.43;;;15.23;;
9392;SDS011;4736;52.508;13.422;2022-11-20T19:16:36;17.53;;;14.67;;
9392;SDS011;4736;52.508;13.422;2022-11-20T19:19:38;18.63;;;13.83;;
9392;SDS011;4736;52.508;13.422;2022-11-20T19:22:41;18.00;;;15.43;;
9392;SDS011;4736;52.508;13.422;2022-11-20T19:25:45;15.97;;;14.27;;
9392;SDS011;4736;52.508;13.422;2022-11-20T19:28:49;16.10;;;14.50;;
9392;SDS011;4736;52.508;13.422;2022-11-20T19:31:52;16.03;;;14.13;;
9392;SDS011;4736;52.508;13.422;2022-11-20T19:34:55;17.40;;;15.10;;
9392;SDS011;4736;52.508;13.422;2022-11-20T19:37:58;16.97;;;14.50;;
9392;SDS011;4736;52.508;13.422;2022-11-20T19:41:06;15.73;;;14.10;;
9392;SDS011;4736;52.508;13.422;2022-11-20T19:44:11;17.13;;;15.43;;
9392;SDS011;4736;52.508;13.422;2022-11-20T19:47:15;16.03;;;14.40;;
9392;SDS011;4736;52.508;13.422;2022-11-20T19:50:18;19.67;;;16.43;;
9392;SDS011;4736;52.508;13.422;2022-11-20T19:53:21;18.13;;;15.83;;
9392;SDS011;4736;52.508;13.422;2022-11-20T19:56:24;17.97;;;15.40;;
9392;SDS011;4736;52.508;13.422;2022-11-20T19:59:30;17.77;;;15.93;;
9392;SDS011;4736;52.508;13.422;2022-11-20T20:02:32;18.90;;;16.03;;
9392;SDS011;4736;52.508;13.422;2022-11-20T20:05:35;17.67;;;15.70;;
9392;SDS011;4736;52.508;13.422;2022-11-20T20:08:38;20.37;;;14.90;;
9392;SDS011;4736;52.508;13.422;2022-11-20T20:11:43;18.77;;;14.83;;
9392;SDS011;4736;52.508;13.422;2022-11-20T20:14:48;18.10;;;15.17;;
9392;SDS011;4736;52.508;13.422;2022-11-20T20:17:53;19.43;;;15.77;;
9392;SDS011;4736;52.508;13.422;2022-11-20T20:21:00;15.93;;;14.33;;
9392;SDS011;4736;52.508;13.422;2022-11-20T20:24:04;17.93;;;15.63;;
9392;SDS011;4736;52.508;13.422;2022-11-20T20:27:08;17.93;;;15.83;;
9392;SDS011;4736;52.508;13.422;2022-11-20T20:30:12;17.33;;;15.47;;
9392;SDS011;4736;52.508;13.422;2022-11-20T20:33:16;19.43;;;15.60;;
9392;SDS011;4736;52.508;13.422;2022-11-20T20:36:19;17.23;;;15.47;;
9392;SDS011;4736;52.508;13.422;2022-11-20T20:39:23;17.30;;;15.47;;
9392;SDS011;4736;52.508;13.422;2022-11-20T20:42:26;18.37;;;15.77;;
9392;SDS011;4736;52.508;13.422;2022-11-20T20:45:32;17.00;;;15.20;;
9392;SDS011;4736;52.508;13.422;2022-11-20T20:48:35;17.07;;;15.30;;
9392;SDS011;4736;52.508;13.422;2022-11-20T20:51:38;17.50;;;15.50;;
9392;SDS011;4736;52.508;13.422;2022-11-20T20:54:41;16.40;;;14.67;;
9392;SDS011;4736;52.508;13.422;2022-11-20T20:57:44;18.67;;;16.50;;
9392;SDS011;4736;52.508;13.422;2022-11-20T21:00:49;18.03;;;15.53;;
9392;SDS011;4736;52.508;13.422;2022-11-20T21:03:52;17.00;;;14.67;;
9392;SDS011;4736;52.508;13.422;2022-11-20T21:06:55;17.57;;;15.80;;
9392;SDS011;4736;52.508;13.422;2022-11-20T21:09:58;16.70;;;15.00;;
9392;SDS011;4736;52.508;13.422;2022-11-20T21:13:01;18.67;;;15.40;;
9392;SDS011;4736;52.508;13.422;2022-11-20T21:16:05;18.40;;;16.43;;
9392;SDS011;4736;52.508;13.422;2022-11-20T21:19:08;17.47;;;15.77;;
9392;SDS011;4736;52.508;13.422;2022-11-20T21:22:11;17.30;;;14.83;;
9392;SDS011;4736;52.508;13.422;2022-11-20T21:25:13;18.63;;;15.70;;
9392;SDS011;4736;52.508;13.422;2022-11-20T21:28:16;16.67;;;14.90;;
9392;SDS011;4736;52.508;13.422;2022-11-20T21:31:21;21.93;;;16.30;;
9392;SDS011;4736;52.508;13.422;2022-11-20T21:34:26;19.40;;;16.23;;
9392;SDS011;4736;52.508;13.422;2022-11-20T21:37:29;19.17;;;15.77;;
9392;SDS011;4736;52.508;13.422;2022-11-20T21:40:37;19.03;;;17.03;;
9392;SDS011;4736;52.508;13.422;2022-11-20T21:43:40;19.63;;;15.83;;
9392;SDS011;4736;52.508;13.422;2022-11-20T21:46:45;18.00;;;14.93;;
9392;SDS011;4736;52.508;13.422;2022-11-20T21:49:48;16.73;;;14.97;;
9392;SDS011;4736;52.508;13.422;2022-11-20T21:52:51;17.77;;;14.87;;
9392;SDS011;4736;52.508;13.422;2022-11-20T21:55:54;16.77;;;15.00;;
9392;SDS011;4736;52.508;13.422;2022-11-20T21:58:58;17.10;;;14.37;;
9392;SDS011;4736;52.508;13.422;2022-11-20T22:02:02;16.40;;;14.70;;
9392;SDS011;4736;52.508;13.422;2022-11-20T22:05:05;16.33;;;13.50;;
9392;SDS011;4736;52.508;13.422;2022-11-20T22:08:09;18.47;;;15.03;;
9392;SDS011;4736;52.508;13.422;2022-11-20T22:11:12;21.00;;;16.97;;
9392;SDS011;4736;52.508;13.422;2022-11-20T22:14:16;23.10;;;18.70;;
9392;SDS011;4736;52.508;13.422;2022-11-20T22:17:25;22.10;;;17.40;;
9392;SDS011;4736;52.508;13.422;2022-11-20T22:20:42;21.63;;;17.43;;
9392;SDS011;4736;52.508;13.422;2022-11-20T22:23:45;23.20;;;17.23;;
9392;SDS011;4736;52.508;13.422;2022-11-20T22:26:48;22.43;;;16.93;;
9392;SDS011;4736;52.508;13.422;2022-11-20T22:29:51;21.00;;;16.77;;
9392;SDS011;4736;52.508;13.422;2022-11-20T22:32:55;24.13;;;17.50;;
9392;SDS011;4736;52.508;13.422;2022-11-20T22:35:59;22.17;;;16.97;;
9392;SDS011;4736;52.508;13.422;2022-11-20T22:39:02;21.13;;;17.20;;
9392;SDS011;4736;52.508;13.422;2022-11-20T22:42:06;22.97;;;17.93;;
9392;SDS011;4736;52.508;13.422;2022-11-20T22:45:09;22.57;;;18.27;;
9392;SDS011;4736;52.508;13.422;2022-11-20T22:48:15;20.73;;;17.13;;
9392;SDS011;4736;52.508;13.422;2022-11-20T22:51:18;21.60;;;16.80;;
9392;SDS011;4736;52.508;13.422;2022-11-20T22:54:22;22.67;;;18.23;;
9392;SDS011;4736;52.508;13.422;2022-11-20T22:57:26;26.80;;;20.07;;
9392;SDS011;4736;52.508;13.422;2022-11-20T23:00:29;27.37;;;19.37;;
9392;SDS011;4736;52.508;13.422;2022-11-20T23:03:33;26.83;;;19.57;;
9392;SDS011;4736;52.508;13.422;2022-11-20T23:06:36;25.40;;;20.93;;
9392;SDS011;4736;52.508;13.422;2022-11-20T23:09:39;26.30;;;20.03;;
9392;SDS011;4736;52.508;13.422;2022-11-20T23:12:42;29.23;;;20.60;;
9392;SDS011;4736;52.508;13.422;2022-11-20T23:15:45;28.83;;;19.67;;
9392;SDS011;4736;52.508;13.422;2022-11-20T23:18:53;30.93;;;21.27;;
9392;SDS011;4736;52.508;13.422;2022-11-20T23:21:56;32.43;;;21.27;;
9392;SDS011;4736;52.508;13.422;2022-11-20T23:24:59;31.17;;;22.17;;
9392;SDS011;4736;52.508;13.422;2022-11-20T23:28:02;29.67;;;21.57;;
9392;SDS011;4736;52.508;13.422;2022-11-20T23:31:06;31.03;;;21.60;;
9392;SDS011;4736;52.508;13.422;2022-11-20T23:34:11;27.83;;;21.73;;
9392;SDS011;4736;52.508;13.422;2022-11-20T23:37:13;28.10;;;21.07;;
9392;SDS011;4736;52.508;13.422;2022-11-20T23:40:17;31.60;;;22.27;;
9392;SDS011;4736;52.508;13.422;2022-11-20T23:43:20;28.03;;;20.47;;
9392;SDS011;4736;52.508;13.422;2022-11-20T23:46:23;28.27;;;20.30;;
9392;SDS011;4736;52.508;13.422;2022-11-20T23:49:27;29.00;;;20.90;;
9392;SDS011;4736;52.508;13.422;2022-11-20T23:52:30;28.43;;;20.87;;
9392;SDS011;4736;52.508;13.422;2022-11-20T23:55:33;33.93;;;22.50;;
9392;SDS011;4736;52.508;13.422;2022-11-20T23:58:37;31.07;;;22.30;;
